Kildonan, Canada
Current Conditions -  °F | °C
As of 6:00 AM on Friday 24 Oct 2014 (Local Time) from CYAZ Reporting Station
Rain Showers Rain Showers  
Wind Chill: 44°   Ceiling: 2500
Heat Index: 46°   Visibility: 5mi
Dew Point: 45°   Wind: 5mph
Humidity: 93%   Direction: 30°NNE
Pressure: 29.99"   Gusts: NA
Location:  49.02°N, 125°W
Report Text: CYAZ 241300Z 03004KT 5SM -SHRA SCT005 OVC025CB 08/07 A2999 RMK CF4CB4 TS DIST NE PAST HR SLP156
Loading
Personal Weather Stations






























Interactive Weather Map
Tropical Storm Tracking
New forecast layout! Learn more

10-Day Weather Forecast

Advertisements
Track Severe Weather on mobile